createdAt,value
2022-09-28T00:02:02.627Z,22.51
2022-09-28T00:04:33.561Z,22.55
2022-09-28T00:07:02.272Z,22.55
2022-09-28T00:09:31.089Z,22.55
2022-09-28T00:12:00.295Z,22.52
2022-09-28T00:14:28.888Z,22.52
2022-09-28T00:16:57.416Z,22.54
2022-09-28T00:19:25.665Z,22.53
2022-09-28T00:21:54.089Z,22.49
2022-09-28T00:24:27.297Z,22.42
2022-09-28T00:27:03.303Z,22.34
2022-09-28T00:29:38.145Z,22.31
2022-09-28T00:32:13.757Z,22.29
2022-09-28T00:34:49.362Z,22.23
2022-09-28T00:37:22.113Z,22.12
2022-09-28T00:39:51.217Z,22.09
2022-09-28T00:42:24.655Z,22.07
2022-09-28T00:44:58.382Z,22.04
2022-09-28T00:47:44.599Z,21.97
2022-09-28T00:50:19.795Z,21.87
2022-09-28T00:53:35.208Z,21.75
2022-09-28T00:56:12.106Z,21.61
2022-09-28T00:58:53.773Z,21.51
2022-09-28T01:01:23.379Z,21.39
2022-09-28T01:03:52.483Z,21.30
2022-09-28T01:06:24.539Z,21.20
2022-09-28T01:08:59.360Z,21.05
2022-09-28T01:11:31.590Z,20.92
2022-09-28T01:14:01.919Z,20.81
2022-09-28T01:16:48.753Z,20.70
2022-09-28T01:19:41.847Z,20.49
2022-09-28T01:22:32.492Z,20.33
2022-09-28T01:25:33.531Z,20.17
2022-09-28T01:28:17.679Z,20.00
2022-09-28T01:31:08.016Z,19.87
2022-09-28T01:33:48.073Z,19.74
2022-09-28T01:36:30.773Z,19.61
2022-09-28T01:39:12.353Z,19.44
2022-09-28T01:41:46.212Z,19.33
2022-09-28T01:44:20.753Z,19.23
2022-09-28T01:46:52.537Z,19.10
2022-09-28T01:49:43.940Z,18.99
2022-09-28T01:52:28.246Z,18.85
2022-09-28T01:55:27.469Z,18.75
2022-09-28T01:58:33.477Z,18.66
2022-09-28T02:01:12.266Z,18.50
2022-09-28T02:04:28.230Z,18.36
2022-09-28T02:07:19.323Z,18.28
2022-09-28T02:09:58.829Z,18.19
2022-09-28T02:12:54.966Z,18.09
2022-09-28T02:15:52.719Z,18.00
2022-09-28T02:18:21.577Z,17.91
2022-09-28T02:21:22.598Z,17.79
2022-09-28T02:23:59.193Z,17.68
2022-09-28T02:26:35.938Z,17.61
2022-09-28T02:29:05.138Z,17.55
2022-09-28T02:31:33.544Z,17.46
2022-09-28T02:34:02.295Z,17.41
2022-09-28T02:36:32.125Z,17.35
2022-09-28T02:39:02.556Z,17.22
2022-09-28T02:41:55.295Z,17.09
2022-09-28T02:44:54.079Z,16.93
2022-09-28T02:48:41.537Z,16.77
2022-09-28T02:51:31.265Z,16.61
2022-09-28T02:54:18.931Z,16.55
2022-09-28T02:57:32.268Z,16.50
2022-09-28T03:00:12.322Z,16.45
2022-09-28T03:03:10.205Z,16.42
2022-09-28T03:05:48.162Z,16.40
2022-09-28T03:08:32.669Z,16.36
2022-09-28T03:11:10.607Z,16.31
2022-09-28T03:13:39.695Z,16.27
2022-09-28T03:16:18.046Z,16.20
2022-09-28T03:18:48.140Z,16.11
2022-09-28T03:21:17.602Z,16.07
2022-09-28T03:23:47.796Z,16.03
2022-09-28T03:26:17.387Z,15.99
2022-09-28T03:28:46.259Z,15.94
2022-09-28T03:31:14.749Z,15.89
2022-09-28T03:33:43.538Z,15.82
2022-09-28T03:36:12.361Z,15.77
2022-09-28T03:38:40.969Z,15.71
2022-09-28T03:41:09.928Z,15.61
2022-09-28T03:43:38.342Z,15.52
2022-09-28T03:46:07.524Z,15.45
2022-09-28T03:48:38.463Z,15.37
2022-09-28T03:51:10.384Z,15.29
2022-09-28T03:53:39.857Z,15.23
2022-09-28T03:56:17.981Z,15.18
2022-09-28T03:58:46.601Z,15.11
2022-09-28T04:01:19.658Z,14.98
2022-09-28T04:03:54.225Z,14.87
2022-09-28T04:06:23.768Z,14.82
2022-09-28T04:08:52.444Z,14.75
2022-09-28T04:11:21.044Z,14.69
2022-09-28T04:13:51.049Z,14.62
2022-09-28T04:16:19.968Z,14.52
2022-09-28T04:18:49.110Z,14.44
2022-09-28T04:21:20.859Z,14.36
2022-09-28T04:23:49.750Z,14.25
2022-09-28T04:26:23.217Z,14.18
2022-09-28T04:29:11.048Z,14.12
2022-09-28T04:31:50.317Z,14.07
2022-09-28T04:34:22.652Z,14.04
2022-09-28T04:36:51.584Z,14.00
2022-09-28T04:39:20.404Z,13.99
2022-09-28T04:41:51.578Z,13.95
2022-09-28T04:44:20.131Z,13.89
2022-09-28T04:46:48.557Z,13.80
2022-09-28T04:49:17.862Z,13.78
2022-09-28T04:51:46.496Z,13.76
2022-09-28T04:54:15.457Z,13.72
2022-09-28T04:56:43.841Z,13.69
2022-09-28T04:59:14.044Z,13.63
2022-09-28T05:01:42.870Z,13.57
2022-09-28T05:04:11.529Z,13.52
2022-09-28T05:06:39.960Z,13.48
2022-09-28T05:09:10.232Z,13.40
2022-09-28T05:11:38.753Z,13.33
2022-09-28T05:14:07.651Z,13.24
2022-09-28T05:16:36.949Z,13.20
2022-09-28T05:19:06.851Z,13.16
2022-09-28T05:21:35.769Z,13.13
2022-09-28T05:24:07.865Z,13.10
2022-09-28T05:26:36.677Z,13.06
2022-09-28T05:29:05.475Z,13.04
2022-09-28T05:31:34.258Z,13.01
2022-09-28T05:34:03.477Z,12.96
2022-09-28T05:36:32.914Z,12.92
2022-09-28T05:39:01.842Z,12.87
2022-09-28T05:41:30.349Z,12.81
2022-09-28T05:43:59.351Z,12.75
2022-09-28T05:46:28.333Z,12.64
2022-09-28T05:48:57.227Z,12.56
2022-09-28T05:51:25.790Z,12.47
2022-09-28T05:54:01.829Z,12.40
2022-09-28T05:56:34.241Z,12.33
2022-09-28T05:59:05.767Z,12.26
2022-09-28T06:01:34.375Z,12.22
2022-09-28T06:04:02.972Z,12.18
2022-09-28T06:06:31.498Z,12.14
2022-09-28T06:09:00.075Z,12.06
2022-09-28T06:11:28.780Z,12.01
2022-09-28T06:13:57.338Z,11.95
2022-09-28T06:16:26.278Z,11.89
2022-09-28T06:18:55.198Z,11.80
2022-09-28T06:21:23.836Z,11.76
2022-09-28T06:23:52.312Z,11.69
2022-09-28T06:26:21.030Z,11.61
2022-09-28T06:28:49.797Z,11.57
2022-09-28T06:31:20.018Z,11.54
2022-09-28T06:33:52.869Z,11.49
2022-09-28T06:36:21.435Z,11.47
2022-09-28T06:38:50.271Z,11.39
2022-09-28T06:41:19.189Z,11.31
2022-09-28T06:43:49.689Z,11.23
2022-09-28T06:46:18.218Z,11.18
2022-09-28T06:48:46.986Z,11.13
2022-09-28T06:51:15.583Z,11.06
2022-09-28T06:53:44.292Z,10.99
2022-09-28T06:56:13.332Z,10.96
2022-09-28T06:58:41.869Z,10.97
2022-09-28T07:01:12.325Z,10.99
2022-09-28T07:03:41.064Z,10.96
2022-09-28T07:06:13.274Z,10.94
2022-09-28T07:08:41.812Z,10.92
2022-09-28T07:11:10.390Z,10.87
2022-09-28T07:13:50.351Z,10.83
2022-09-28T07:16:26.931Z,10.76
2022-09-28T07:19:00.051Z,10.70
2022-09-28T07:21:30.770Z,10.66
2022-09-28T07:24:00.311Z,10.65
2022-09-28T07:26:28.852Z,10.62
2022-09-28T07:28:57.595Z,10.59
2022-09-28T07:31:26.046Z,10.54
2022-09-28T07:33:54.740Z,10.51
2022-09-28T07:36:23.837Z,10.48
2022-09-28T07:38:52.743Z,10.43
2022-09-28T07:41:33.003Z,10.37
2022-09-28T07:44:07.153Z,10.29
2022-09-28T07:46:37.790Z,10.25
2022-09-28T07:49:09.726Z,10.17
2022-09-28T07:51:44.652Z,10.10
2022-09-28T07:54:13.034Z,10.05
2022-09-28T07:56:41.398Z,10.05
2022-09-28T07:59:10.153Z,10.01
2022-09-28T08:01:39.064Z,9.96
2022-09-28T08:04:07.579Z,9.88
2022-09-28T08:06:36.267Z,9.80
2022-09-28T08:09:04.817Z,9.75
2022-09-28T08:11:33.332Z,9.72
2022-09-28T08:14:02.585Z,9.65
2022-09-28T08:16:32.710Z,9.60
2022-09-28T08:19:01.283Z,9.55
2022-09-28T08:21:48.761Z,9.48
2022-09-28T08:24:19.581Z,9.43
2022-09-28T08:26:48.195Z,9.38
2022-09-28T08:29:17.588Z,9.35
2022-09-28T08:31:49.292Z,9.28
2022-09-28T08:34:17.903Z,9.26
2022-09-28T08:36:46.430Z,9.21
2022-09-28T08:39:16.948Z,9.16
2022-09-28T08:42:22.788Z,9.11
2022-09-28T08:44:58.301Z,9.06
2022-09-28T08:48:09.230Z,9.02
2022-09-28T08:51:06.530Z,8.95
2022-09-28T08:54:09.501Z,8.88
2022-09-28T08:57:02.014Z,8.83
2022-09-28T08:59:54.889Z,8.78
2022-09-28T09:02:35.112Z,8.75
2022-09-28T09:05:15.233Z,8.73
2022-09-28T09:08:23.745Z,8.67
2022-09-28T09:11:08.608Z,8.61
2022-09-28T09:14:30.759Z,8.57
2022-09-28T09:17:41.392Z,8.53
2022-09-28T09:20:34.954Z,8.45
2022-09-28T09:23:39.821Z,8.37
2022-09-28T09:26:26.344Z,8.25
2022-09-28T09:29:23.544Z,8.06
2022-09-28T09:32:27.607Z,7.92
2022-09-28T09:35:20.159Z,7.74
2022-09-28T09:38:40.201Z,7.59
2022-09-28T09:41:35.637Z,7.55
2022-09-28T09:44:39.164Z,7.53
2022-09-28T09:47:24.751Z,7.50
2022-09-28T09:50:34.281Z,7.44
2022-09-28T09:53:25.433Z,7.39
2022-09-28T09:56:25.091Z,7.35
2022-09-28T09:59:02.958Z,7.32
2022-09-28T10:01:41.046Z,7.30
2022-09-28T10:04:38.530Z,7.32
2022-09-28T10:07:15.402Z,7.31
2022-09-28T10:09:48.502Z,7.29
2022-09-28T10:12:22.586Z,7.31
2022-09-28T10:14:51.396Z,7.34
2022-09-28T10:17:27.368Z,7.37
2022-09-28T10:19:57.436Z,7.39
2022-09-28T10:22:29.086Z,7.41
2022-09-28T10:24:59.123Z,7.43
2022-09-28T10:27:36.367Z,7.43
2022-09-28T10:30:19.346Z,7.43
2022-09-28T10:32:52.937Z,7.43
2022-09-28T10:35:25.329Z,7.43
2022-09-28T10:38:17.621Z,7.42
2022-09-28T10:40:56.473Z,7.39
2022-09-28T10:43:39.951Z,7.34
2022-09-28T10:46:14.630Z,7.31
2022-09-28T10:49:10.002Z,7.29
2022-09-28T10:51:57.035Z,7.25
2022-09-28T10:54:28.964Z,7.21
2022-09-28T10:56:59.762Z,7.16
2022-09-28T10:59:31.079Z,7.12
2022-09-28T11:02:26.477Z,7.09
2022-09-28T11:05:06.112Z,7.05
2022-09-28T11:07:47.427Z,7.04
2022-09-28T11:10:29.168Z,7.02
2022-09-28T11:12:59.061Z,6.99
2022-09-28T11:15:34.197Z,6.99
2022-09-28T11:18:31.858Z,7.01
2022-09-28T11:21:16.526Z,7.02
2022-09-28T11:24:19.527Z,7.04
2022-09-28T11:26:53.284Z,7.05
2022-09-28T11:29:44.610Z,7.03
2022-09-28T11:32:15.865Z,6.96
2022-09-28T11:34:59.236Z,6.93
2022-09-28T11:37:46.597Z,6.91
2022-09-28T11:41:08.140Z,6.84
2022-09-28T11:43:42.262Z,6.76
2022-09-28T11:46:22.402Z,6.74
2022-09-28T11:49:02.554Z,6.71
2022-09-28T11:51:41.237Z,6.65
2022-09-28T11:54:21.165Z,6.62
2022-09-28T11:56:52.759Z,6.58
2022-09-28T12:00:21.205Z,6.55
2022-09-28T12:03:21.482Z,6.53
2022-09-28T12:06:02.944Z,6.53
2022-09-28T12:08:38.813Z,6.51
2022-09-28T12:11:27.824Z,6.51
2022-09-28T12:14:01.134Z,6.43
2022-09-28T12:20:22.587Z,6.28
2022-09-28T12:23:17.842Z,6.23
2022-09-28T12:25:59.370Z,6.21
2022-09-28T12:28:43.282Z,6.21
2022-09-28T12:31:29.327Z,6.19
2022-09-28T12:34:03.759Z,6.15
2022-09-28T12:37:09.373Z,6.13
2022-09-28T12:40:04.157Z,6.08
2022-09-28T12:43:18.045Z,6.07
2022-09-28T12:46:16.192Z,6.02
2022-09-28T12:52:24.406Z,5.92
2022-09-28T12:55:21.017Z,5.88
2022-09-28T12:57:55.344Z,5.85
2022-09-28T13:00:31.681Z,5.83
2022-09-28T13:03:59.713Z,5.83
2022-09-28T13:07:03.762Z,5.82
2022-09-28T13:09:48.899Z,5.83
2022-09-28T13:13:14.543Z,5.84
2022-09-28T13:16:02.550Z,5.84
2022-09-28T13:19:05.325Z,5.82
2022-09-28T13:21:55.723Z,5.76
2022-09-28T13:24:33.349Z,5.71
2022-09-28T13:27:15.935Z,5.69
2022-09-28T13:29:45.300Z,5.70
2022-09-28T13:32:15.465Z,5.67
2022-09-28T13:34:49.416Z,5.65
2022-09-28T13:37:17.823Z,5.61
2022-09-28T13:39:46.395Z,5.58
2022-09-28T13:42:53.496Z,5.55
2022-09-28T13:45:38.706Z,5.53
2022-09-28T13:48:15.792Z,5.53
2022-09-28T13:51:14.962Z,5.56
2022-09-28T13:54:25.176Z,5.58
2022-09-28T13:57:34.059Z,5.59
2022-09-28T14:00:29.847Z,5.63
2022-09-28T14:03:24.793Z,5.63
2022-09-28T14:06:35.376Z,5.62
2022-09-28T14:09:19.238Z,5.60
2022-09-28T14:12:24.771Z,5.59
2022-09-28T14:14:53.787Z,5.59
2022-09-28T14:17:24.822Z,5.58
2022-09-28T14:20:15.665Z,5.57
2022-09-28T14:23:25.632Z,5.59
2022-09-28T14:26:42.345Z,5.62
2022-09-28T14:29:32.813Z,5.69
2022-09-28T14:32:36.490Z,5.74
2022-09-28T14:35:37.761Z,5.77
2022-09-28T14:38:36.942Z,5.83
2022-09-28T14:41:18.308Z,5.83
2022-09-28T14:43:47.489Z,5.78
2022-09-28T14:46:17.371Z,5.71
2022-09-28T14:48:58.745Z,5.66
2022-09-28T14:51:27.146Z,5.64
2022-09-28T14:54:06.606Z,5.61
2022-09-28T14:56:49.969Z,5.60
2022-09-28T14:59:31.280Z,5.60
2022-09-28T15:02:17.316Z,5.60
2022-09-28T15:04:58.324Z,5.56
2022-09-28T15:07:44.236Z,5.52
2022-09-28T15:10:46.489Z,5.54
2022-09-28T15:13:27.638Z,5.58
2022-09-28T15:16:13.671Z,5.64
2022-09-28T15:19:31.946Z,5.72
2022-09-28T15:22:01.094Z,5.84
2022-09-28T15:24:35.563Z,5.90
2022-09-28T15:27:16.369Z,5.96
2022-09-28T15:30:03.441Z,6.00
2022-09-28T15:32:32.730Z,6.03
2022-09-28T15:35:20.844Z,6.07
2022-09-28T15:37:52.383Z,6.15
2022-09-28T15:40:39.324Z,6.22
2022-09-28T15:43:29.711Z,6.30
2022-09-28T15:46:29.167Z,6.37
2022-09-28T15:49:02.071Z,6.44
2022-09-28T15:51:45.642Z,6.51
2022-09-28T15:54:26.127Z,6.60
2022-09-28T15:57:02.866Z,6.70
2022-09-28T15:59:39.813Z,6.82
2022-09-28T16:02:26.317Z,6.97
2022-09-28T16:05:01.826Z,7.13
2022-09-28T16:07:40.084Z,7.28
2022-09-28T16:10:15.384Z,7.44
2022-09-28T16:12:46.349Z,7.57
2022-09-28T16:15:24.192Z,7.67
2022-09-28T16:18:03.028Z,7.78
2022-09-28T16:20:35.952Z,7.87
2022-09-28T16:23:27.182Z,7.97
2022-09-28T16:26:06.697Z,8.08
2022-09-28T16:28:38.317Z,8.18
2022-09-28T16:31:34.837Z,8.30
2022-09-28T16:34:20.322Z,8.39
2022-09-28T16:36:52.091Z,8.47
2022-09-28T16:39:22.188Z,8.58
2022-09-28T16:42:02.181Z,8.67
2022-09-28T16:44:33.086Z,8.77
2022-09-28T16:47:02.074Z,8.88
2022-09-28T16:49:32.515Z,9.01
2022-09-28T16:52:02.381Z,9.13
2022-09-28T16:54:49.379Z,9.26
2022-09-28T16:57:18.118Z,9.37
2022-09-28T16:59:46.607Z,9.47
2022-09-28T17:05:20.510Z,9.70
2022-09-28T17:08:19.201Z,9.81
2022-09-28T17:11:16.994Z,9.92
2022-09-28T17:13:49.161Z,10.06
2022-09-28T17:16:37.100Z,10.23
2022-09-28T17:19:26.501Z,10.35
2022-09-28T17:21:55.095Z,10.45
2022-09-28T17:24:23.615Z,10.56
2022-09-28T17:26:53.594Z,10.67
2022-09-28T17:29:24.001Z,10.85
2022-09-28T17:31:53.515Z,10.98
2022-09-28T17:34:22.248Z,11.09
2022-09-28T17:36:51.325Z,11.23
2022-09-28T17:39:21.020Z,11.33
2022-09-28T17:41:49.862Z,11.43
2022-09-28T17:44:20.834Z,11.53
2022-09-28T17:46:51.406Z,11.64
2022-09-28T17:49:20.453Z,11.74
2022-09-28T17:51:50.575Z,11.89
2022-09-28T17:54:21.482Z,12.02
2022-09-28T17:56:50.132Z,12.13
2022-09-28T17:59:20.039Z,12.23
2022-09-28T18:01:49.081Z,12.34
2022-09-28T18:04:47.084Z,12.50
2022-09-28T18:07:07.343Z,12.63
2022-09-28T18:09:36.534Z,12.70
2022-09-28T18:12:07.313Z,12.76
2022-09-28T18:14:36.189Z,12.82
2022-09-28T18:17:04.957Z,12.93
2022-09-28T18:19:33.525Z,13.04
2022-09-28T18:22:01.960Z,13.15
2022-09-28T18:24:30.585Z,13.30
2022-09-28T18:26:59.449Z,13.40
2022-09-28T18:29:32.258Z,13.52
2022-09-28T18:32:02.836Z,13.64
2022-09-28T18:34:31.349Z,13.74
2022-09-28T18:36:59.821Z,13.84
2022-09-28T18:39:28.207Z,13.93
2022-09-28T18:41:56.683Z,14.03
2022-09-28T18:44:25.096Z,14.17
2022-09-28T18:46:53.683Z,14.27
2022-09-28T18:49:23.782Z,14.38
2022-09-28T18:51:52.310Z,14.50
2022-09-28T18:54:20.863Z,14.63
2022-09-28T18:56:51.617Z,14.74
2022-09-28T18:59:20.004Z,14.88
2022-09-28T19:01:48.611Z,15.01
2022-09-28T19:04:17.916Z,15.22
2022-09-28T19:06:51.915Z,15.35
2022-09-28T19:09:23.564Z,15.41
2022-09-28T19:11:52.595Z,15.51
2022-09-28T19:14:21.898Z,15.55
2022-09-28T19:16:50.610Z,15.60
2022-09-28T19:19:21.525Z,15.67
2022-09-28T19:21:50.819Z,15.77
2022-09-28T19:24:20.478Z,15.89
2022-09-28T19:26:50.309Z,16.03
2022-09-28T19:29:19.241Z,16.17
2022-09-28T19:31:49.906Z,16.41
2022-09-28T19:34:19.186Z,16.53
2022-09-28T19:36:47.748Z,16.60
2022-09-28T19:39:16.828Z,16.75
2022-09-28T19:41:57.698Z,16.86
2022-09-28T19:44:37.431Z,16.98
2022-09-28T19:47:10.328Z,17.07
2022-09-28T19:49:42.048Z,17.15
2022-09-28T19:52:17.317Z,17.27
2022-09-28T19:55:00.694Z,17.38
2022-09-28T19:57:32.474Z,17.48
2022-09-28T20:00:04.240Z,17.57
2022-09-28T20:02:34.525Z,17.68
2022-09-28T20:05:03.357Z,17.85
2022-09-28T20:07:33.715Z,18.01
2022-09-28T20:10:03.146Z,18.13
2022-09-28T20:12:31.478Z,18.22
2022-09-28T20:15:00.112Z,18.25
2022-09-28T20:17:28.546Z,18.36
2022-09-28T20:19:57.913Z,18.45
2022-09-28T20:22:26.407Z,18.53
2022-09-28T20:24:54.908Z,18.76
2022-09-28T20:27:26.427Z,19.03
2022-09-28T20:29:55.474Z,19.10
2022-09-28T20:32:23.966Z,19.20
2022-09-28T20:34:52.420Z,19.27
2022-09-28T20:37:21.144Z,19.23
2022-09-28T20:39:49.663Z,19.25
2022-09-28T20:42:18.026Z,19.32
2022-09-28T20:44:47.007Z,19.35
2022-09-28T20:47:15.547Z,19.37
2022-09-28T20:49:44.847Z,19.36
2022-09-28T20:52:13.371Z,19.36
2022-09-28T20:54:42.163Z,19.38
2022-09-28T20:57:20.498Z,19.42
2022-09-28T20:59:54.361Z,19.46
2022-09-28T21:02:25.112Z,19.48
2022-09-28T21:04:54.428Z,19.51
2022-09-28T21:07:22.772Z,19.55
2022-09-28T21:09:51.470Z,19.57
2022-09-28T21:12:19.999Z,19.61
2022-09-28T21:14:48.455Z,19.66
2022-09-28T21:17:17.004Z,19.75
2022-09-28T21:19:45.534Z,19.93
2022-09-28T21:22:14.195Z,20.16
2022-09-28T21:24:42.858Z,20.27
2022-09-28T21:27:11.365Z,20.39
2022-09-28T21:29:39.919Z,20.55
2022-09-28T21:32:08.808Z,20.74
2022-09-28T21:34:37.217Z,20.93
2022-09-28T21:37:06.774Z,20.96
2022-09-28T21:39:50.884Z,20.92
2022-09-28T21:42:19.522Z,20.95
2022-09-28T21:47:30.455Z,21.41
2022-09-28T21:52:46.949Z,21.92
2022-09-28T21:55:15.752Z,22.12
2022-09-28T21:57:47.531Z,22.31
2022-09-28T22:00:25.589Z,22.50
2022-09-28T22:02:54.874Z,22.73
2022-09-28T22:05:23.529Z,22.90
2022-09-28T22:07:52.060Z,23.09
2022-09-28T22:10:20.509Z,23.22
2022-09-28T22:12:50.969Z,23.29
2022-09-28T22:15:19.507Z,23.42
2022-09-28T22:17:47.784Z,23.58
2022-09-28T22:20:16.497Z,23.73
2022-09-28T22:22:52.997Z,23.80
2022-09-28T22:25:22.082Z,23.87
2022-09-28T22:27:50.668Z,23.96
2022-09-28T22:30:19.300Z,24.02
2022-09-28T22:32:47.703Z,24.04
2022-09-28T22:35:17.013Z,24.06
2022-09-28T22:37:45.697Z,24.10
2022-09-28T22:40:14.355Z,24.11
2022-09-28T22:42:43.591Z,24.06
2022-09-28T22:45:12.161Z,24.02
2022-09-28T22:47:43.765Z,23.99
2022-09-28T22:50:12.799Z,24.01
2022-09-28T22:52:41.306Z,24.02
2022-09-28T22:55:10.612Z,24.04
2022-09-28T22:57:39.749Z,24.07
2022-09-28T23:00:09.655Z,24.12
2022-09-28T23:02:38.975Z,24.15
2022-09-28T23:05:08.272Z,24.19
2022-09-28T23:07:36.852Z,24.21
2022-09-28T23:10:06.403Z,24.25
2022-09-28T23:12:36.061Z,24.30
2022-09-28T23:15:05.158Z,24.31
2022-09-28T23:17:33.657Z,24.25
2022-09-28T23:20:02.409Z,24.18
2022-09-28T23:22:31.701Z,24.10
2022-09-28T23:25:01.111Z,24.02
2022-09-28T23:27:29.710Z,23.92
2022-09-28T23:29:58.507Z,23.80
2022-09-28T23:32:31.788Z,23.68
2022-09-28T23:35:00.722Z,23.58
2022-09-28T23:37:29.967Z,23.46
2022-09-28T23:39:58.675Z,23.32
2022-09-28T23:42:27.176Z,23.14
2022-09-28T23:44:56.213Z,22.99
2022-09-28T23:47:25.006Z,22.79
2022-09-28T23:49:53.604Z,22.66
2022-09-28T23:52:22.173Z,22.58
2022-09-28T23:54:50.940Z,22.53
2022-09-28T23:57:19.449Z,22.49
2022-09-28T23:59:47.871Z,22.45
